sensor_id;sensor_type;location;lat;lon;timestamp;pressure;altitude;pressure_sealevel;temperature;humidity
70544;BME280;58097;48.364;-1.224;2023-04-04T00:01:24;100475.97;;;6.95;66.26
70544;BME280;58097;48.364;-1.224;2023-04-04T00:03:50;100485.41;;;6.91;66.16
70544;BME280;58097;48.364;-1.224;2023-04-04T00:06:17;100483.53;;;6.91;66.20
70544;BME280;58097;48.364;-1.224;2023-04-04T00:08:43;100487.41;;;6.89;66.61
70544;BME280;58097;48.364;-1.224;2023-04-04T00:11:08;100486.28;;;6.91;66.36
70544;BME280;58097;48.364;-1.224;2023-04-04T00:13:33;100484.53;;;6.90;66.25
70544;BME280;58097;48.364;-1.224;2023-04-04T00:15:59;100480.31;;;6.86;66.40
70544;BME280;58097;48.364;-1.224;2023-04-04T00:18:24;100478.44;;;6.75;67.04
70544;BME280;58097;48.364;-1.224;2023-04-04T00:20:50;100476.31;;;6.79;66.42
70544;BME280;58097;48.364;-1.224;2023-04-04T00:23:15;100483.44;;;6.81;66.47
70544;BME280;58097;48.364;-1.224;2023-04-04T00:25:41;100484.44;;;6.80;66.47
70544;BME280;58097;48.364;-1.224;2023-04-04T00:28:08;100489.16;;;6.78;66.75
70544;BME280;58097;48.364;-1.224;2023-04-04T00:30:33;100487.41;;;6.77;66.47
70544;BME280;58097;48.364;-1.224;2023-04-04T00:32:59;100490.03;;;6.79;66.49
70544;BME280;58097;48.364;-1.224;2023-04-04T00:35:26;100483.81;;;6.77;66.71
70544;BME280;58097;48.364;-1.224;2023-04-04T00:37:51;100490.66;;;6.71;66.91
70544;BME280;58097;48.364;-1.224;2023-04-04T00:40:16;100483.06;;;6.75;66.85
70544;BME280;58097;48.364;-1.224;2023-04-04T00:42:42;100488.78;;;6.72;66.90
70544;BME280;58097;48.364;-1.224;2023-04-04T00:45:07;100487.41;;;6.77;66.33
70544;BME280;58097;48.364;-1.224;2023-04-04T00:47:33;100494.16;;;6.73;66.50
70544;BME280;58097;48.364;-1.224;2023-04-04T00:49:59;100492.41;;;6.72;66.39
70544;BME280;58097;48.364;-1.224;2023-04-04T00:52:25;100486.78;;;6.74;66.40
70544;BME280;58097;48.364;-1.224;2023-04-04T00:54:51;100488.66;;;6.73;66.36
70544;BME280;58097;48.364;-1.224;2023-04-04T00:57:17;100481.06;;;6.66;67.05
70544;BME280;58097;48.364;-1.224;2023-04-04T00:59:43;100483.78;;;6.66;66.67
70544;BME280;58097;48.364;-1.224;2023-04-04T01:02:08;100480.50;;;6.61;67.23
70544;BME280;58097;48.364;-1.224;2023-04-04T01:04:34;100483.88;;;6.53;67.16
70544;BME280;58097;48.364;-1.224;2023-04-04T01:07:01;100476.50;;;6.53;67.06
70544;BME280;58097;48.364;-1.224;2023-04-04T01:09:27;100478.13;;;6.56;66.93
70544;BME280;58097;48.364;-1.224;2023-04-04T01:11:54;100481.63;;;6.58;66.60
70544;BME280;58097;48.364;-1.224;2023-04-04T01:14:20;100480.75;;;6.58;66.82
70544;BME280;58097;48.364;-1.224;2023-04-04T01:16:47;100479.13;;;6.55;66.60
70544;BME280;58097;48.364;-1.224;2023-04-04T01:19:20;100473.66;;;6.55;66.80
70544;BME280;58097;48.364;-1.224;2023-04-04T01:21:47;100472.78;;;6.55;66.43
70544;BME280;58097;48.364;-1.224;2023-04-04T01:24:15;100469.28;;;6.52;66.50
70544;BME280;58097;48.364;-1.224;2023-04-04T01:26:40;100473.03;;;6.51;66.33
70544;BME280;58097;48.364;-1.224;2023-04-04T01:29:06;100478.75;;;6.48;66.46
70544;BME280;58097;48.364;-1.224;2023-04-04T01:31:39;100470.13;;;6.42;66.20
70544;BME280;58097;48.364;-1.224;2023-04-04T01:34:16;100470.50;;;6.37;66.26
70544;BME280;58097;48.364;-1.224;2023-04-04T01:36:50;100472.72;;;6.32;66.16
70544;BME280;58097;48.364;-1.224;2023-04-04T01:39:27;100474.81;;;6.29;66.10
70544;BME280;58097;48.364;-1.224;2023-04-04T01:41:56;100478.06;;;6.22;66.05
70544;BME280;58097;48.364;-1.224;2023-04-04T01:44:22;100482.91;;;6.19;66.03
70544;BME280;58097;48.364;-1.224;2023-04-04T01:46:52;100478.91;;;6.12;65.99
70544;BME280;58097;48.364;-1.224;2023-04-04T01:49:19;100479.47;;;6.04;65.93
70544;BME280;58097;48.364;-1.224;2023-04-04T01:51:44;100474.59;;;5.97;65.86
70544;BME280;58097;48.364;-1.224;2023-04-04T01:54:10;100473.41;;;5.88;66.01
70544;BME280;58097;48.364;-1.224;2023-04-04T01:56:36;100469.50;;;5.79;66.07
70544;BME280;58097;48.364;-1.224;2023-04-04T01:59:01;100470.06;;;5.72;65.93
70544;BME280;58097;48.364;-1.224;2023-04-04T02:01:27;100466.28;;;5.62;65.63
70544;BME280;58097;48.364;-1.224;2023-04-04T02:03:52;100466.75;;;5.55;66.00
70544;BME280;58097;48.364;-1.224;2023-04-04T02:06:18;100464.47;;;5.49;65.89
70544;BME280;58097;48.364;-1.224;2023-04-04T02:08:43;100464.91;;;5.43;65.97
70544;BME280;58097;48.364;-1.224;2023-04-04T02:11:09;100470.97;;;5.36;65.92
70544;BME280;58097;48.364;-1.224;2023-04-04T02:13:34;100465.97;;;5.29;66.04
70544;BME280;58097;48.364;-1.224;2023-04-04T02:16:02;100464.44;;;5.25;66.48
70544;BME280;58097;48.364;-1.224;2023-04-04T02:18:27;100460.38;;;5.18;66.90
70544;BME280;58097;48.364;-1.224;2023-04-04T02:20:56;100454.38;;;5.13;66.54
70544;BME280;58097;48.364;-1.224;2023-04-04T02:23:21;100454.84;;;5.07;66.58
70544;BME280;58097;48.364;-1.224;2023-04-04T02:25:51;100447.84;;;5.03;66.62
70544;BME280;58097;48.364;-1.224;2023-04-04T02:28:17;100447.19;;;5.00;66.72
70544;BME280;58097;48.364;-1.224;2023-04-04T02:30:42;100449.41;;;4.94;66.66
70544;BME280;58097;48.364;-1.224;2023-04-04T02:33:08;100453.31;;;4.90;66.68
70544;BME280;58097;48.364;-1.224;2023-04-04T02:35:33;100455.41;;;4.87;66.68
70544;BME280;58097;48.364;-1.224;2023-04-04T02:37:58;100458.38;;;4.84;66.76
70544;BME280;58097;48.364;-1.224;2023-04-04T02:40:24;100457.72;;;4.80;66.90
70544;BME280;58097;48.364;-1.224;2023-04-04T02:42:49;100453.47;;;4.76;66.55
70544;BME280;58097;48.364;-1.224;2023-04-04T02:45:15;100462.03;;;4.72;67.01
70544;BME280;58097;48.364;-1.224;2023-04-04T02:47:41;100461.47;;;4.66;66.89
70544;BME280;58097;48.364;-1.224;2023-04-04T02:50:08;100447.16;;;4.63;67.06
70544;BME280;58097;48.364;-1.224;2023-04-04T02:52:34;100451.06;;;4.59;66.61
70544;BME280;58097;48.364;-1.224;2023-04-04T02:54:59;100450.06;;;4.60;66.84
70544;BME280;58097;48.364;-1.224;2023-04-04T02:57:24;100444.16;;;4.53;66.86
70544;BME280;58097;48.364;-1.224;2023-04-04T02:59:50;100444.38;;;4.50;66.86
70544;BME280;58097;48.364;-1.224;2023-04-04T03:02:15;100451.94;;;4.47;67.23
70544;BME280;58097;48.364;-1.224;2023-04-04T03:04:40;100443.09;;;4.43;67.33
70544;BME280;58097;48.364;-1.224;2023-04-04T03:07:06;100448.78;;;4.40;67.21
70544;BME280;58097;48.364;-1.224;2023-04-04T03:09:31;100450.88;;;4.37;67.45
70544;BME280;58097;48.364;-1.224;2023-04-04T03:11:56;100450.97;;;4.35;67.31
70544;BME280;58097;48.364;-1.224;2023-04-04T03:14:22;100448.53;;;4.30;67.66
70544;BME280;58097;48.364;-1.224;2023-04-04T03:16:47;100452.47;;;4.26;67.45
70544;BME280;58097;48.364;-1.224;2023-04-04T03:19:14;100449.53;;;4.29;67.94
70544;BME280;58097;48.364;-1.224;2023-04-04T03:21:40;100448.75;;;4.27;67.49
70544;BME280;58097;48.364;-1.224;2023-04-04T03:24:05;100450.06;;;4.22;67.81
70544;BME280;58097;48.364;-1.224;2023-04-04T03:26:31;100443.84;;;4.20;67.74
70544;BME280;58097;48.364;-1.224;2023-04-04T03:28:56;100440.88;;;4.23;68.20
70544;BME280;58097;48.364;-1.224;2023-04-04T03:31:21;100446.56;;;4.20;68.09
70544;BME280;58097;48.364;-1.224;2023-04-04T03:33:47;100446.69;;;4.18;67.94
70544;BME280;58097;48.364;-1.224;2023-04-04T03:36:13;100451.50;;;4.15;67.75
70544;BME280;58097;48.364;-1.224;2023-04-04T03:38:38;100461.78;;;4.11;67.63
70544;BME280;58097;48.364;-1.224;2023-04-04T03:41:04;100465.59;;;4.09;68.09
70544;BME280;58097;48.364;-1.224;2023-04-04T03:43:30;100464.34;;;4.00;67.53
70544;BME280;58097;48.364;-1.224;2023-04-04T03:46:04;100455.50;;;3.96;68.02
70544;BME280;58097;48.364;-1.224;2023-04-04T03:48:30;100469.28;;;3.95;68.10
70544;BME280;58097;48.364;-1.224;2023-04-04T03:50:59;100466.53;;;3.95;68.23
70544;BME280;58097;48.364;-1.224;2023-04-04T03:53:24;100473.88;;;3.94;68.35
70544;BME280;58097;48.364;-1.224;2023-04-04T03:55:51;100472.13;;;3.93;68.40
70544;BME280;58097;48.364;-1.224;2023-04-04T03:58:17;100467.53;;;3.94;68.42
70544;BME280;58097;48.364;-1.224;2023-04-04T04:00:42;100469.59;;;3.90;68.08
70544;BME280;58097;48.364;-1.224;2023-04-04T04:03:07;100466.19;;;3.87;68.21
70544;BME280;58097;48.364;-1.224;2023-04-04T04:05:33;100472.75;;;3.84;68.19
70544;BME280;58097;48.364;-1.224;2023-04-04T04:07:58;100477.47;;;3.82;68.17
70544;BME280;58097;48.364;-1.224;2023-04-04T04:10:23;100471.13;;;3.82;68.21
70544;BME280;58097;48.364;-1.224;2023-04-04T04:12:49;100472.97;;;3.81;68.47
70544;BME280;58097;48.364;-1.224;2023-04-04T04:15:14;100470.34;;;3.80;68.25
70544;BME280;58097;48.364;-1.224;2023-04-04T04:17:40;100460.78;;;3.72;68.19
70544;BME280;58097;48.364;-1.224;2023-04-04T04:20:09;100464.50;;;3.71;68.58
70544;BME280;58097;48.364;-1.224;2023-04-04T04:22:35;100472.03;;;3.68;68.30
70544;BME280;58097;48.364;-1.224;2023-04-04T04:25:01;100471.94;;;3.69;68.53
70544;BME280;58097;48.364;-1.224;2023-04-04T04:27:26;100469.94;;;3.59;68.08
70544;BME280;58097;48.364;-1.224;2023-04-04T04:29:52;100464.78;;;3.54;69.08
70544;BME280;58097;48.364;-1.224;2023-04-04T04:32:17;100467.84;;;3.50;69.10
70544;BME280;58097;48.364;-1.224;2023-04-04T04:34:43;100471.44;;;3.50;69.22
70544;BME280;58097;48.364;-1.224;2023-04-04T04:37:09;100471.34;;;3.52;69.13
70544;BME280;58097;48.364;-1.224;2023-04-04T04:39:34;100476.69;;;3.53;69.13
70544;BME280;58097;48.364;-1.224;2023-04-04T04:42:00;100477.00;;;3.49;69.10
70544;BME280;58097;48.364;-1.224;2023-04-04T04:44:26;100474.38;;;3.47;68.90
70544;BME280;58097;48.364;-1.224;2023-04-04T04:46:51;100476.13;;;3.48;69.36
70544;BME280;58097;48.364;-1.224;2023-04-04T04:49:17;100481.66;;;3.47;68.80
70544;BME280;58097;48.364;-1.224;2023-04-04T04:51:42;100480.91;;;3.45;69.03
70544;BME280;58097;48.364;-1.224;2023-04-04T04:54:07;100481.00;;;3.43;69.15
70544;BME280;58097;48.364;-1.224;2023-04-04T04:56:33;100475.44;;;3.45;69.13
70544;BME280;58097;48.364;-1.224;2023-04-04T04:58:58;100480.03;;;3.44;69.10
70544;BME280;58097;48.364;-1.224;2023-04-04T05:01:24;100484.72;;;3.42;69.11
70544;BME280;58097;48.364;-1.224;2023-04-04T05:03:49;100485.78;;;3.39;68.78
70544;BME280;58097;48.364;-1.224;2023-04-04T05:06:15;100496.34;;;3.31;68.37
70544;BME280;58097;48.364;-1.224;2023-04-04T05:08:40;100502.03;;;3.28;69.01
70544;BME280;58097;48.364;-1.224;2023-04-04T05:14:28;100501.34;;;3.25;69.32
70544;BME280;58097;48.364;-1.224;2023-04-04T05:16:53;100497.75;;;3.24;69.41
70544;BME280;58097;48.364;-1.224;2023-04-04T05:19:18;100503.31;;;3.23;69.33
70544;BME280;58097;48.364;-1.224;2023-04-04T05:21:44;100514.44;;;3.20;68.85
70544;BME280;58097;48.364;-1.224;2023-04-04T05:24:10;100511.09;;;3.15;69.14
70544;BME280;58097;48.364;-1.224;2023-04-04T05:26:35;100518.22;;;3.17;69.66
70544;BME280;58097;48.364;-1.224;2023-04-04T05:29:00;100511.88;;;3.17;69.68
70544;BME280;58097;48.364;-1.224;2023-04-04T05:31:26;100520.19;;;3.15;69.67
70544;BME280;58097;48.364;-1.224;2023-04-04T05:33:51;100520.28;;;3.14;69.82
70544;BME280;58097;48.364;-1.224;2023-04-04T05:36:18;100523.69;;;3.17;70.13
70544;BME280;58097;48.364;-1.224;2023-04-04T05:38:43;100522.63;;;3.20;70.03
70544;BME280;58097;48.364;-1.224;2023-04-04T05:41:08;100524.50;;;3.19;69.98
70544;BME280;58097;48.364;-1.224;2023-04-04T05:43:34;100540.69;;;3.22;70.13
70544;BME280;58097;48.364;-1.224;2023-04-04T05:46:00;100536.19;;;3.21;70.21
70544;BME280;58097;48.364;-1.224;2023-04-04T05:48:25;100533.47;;;3.21;70.49
70544;BME280;58097;48.364;-1.224;2023-04-04T05:50:51;100543.41;;;3.22;70.41
70544;BME280;58097;48.364;-1.224;2023-04-04T05:53:16;100544.19;;;3.24;70.10
70544;BME280;58097;48.364;-1.224;2023-04-04T05:55:41;100548.56;;;3.27;70.17
70544;BME280;58097;48.364;-1.224;2023-04-04T05:58:07;100560.47;;;3.26;70.17
70544;BME280;58097;48.364;-1.224;2023-04-04T06:00:32;100556.88;;;3.25;70.08
70544;BME280;58097;48.364;-1.224;2023-04-04T06:02:57;100555.00;;;3.26;70.13
70544;BME280;58097;48.364;-1.224;2023-04-04T06:05:23;100562.44;;;3.24;70.17
70544;BME280;58097;48.364;-1.224;2023-04-04T06:07:49;100563.41;;;3.23;70.42
70544;BME280;58097;48.364;-1.224;2023-04-04T06:10:15;100567.22;;;3.20;69.90
70544;BME280;58097;48.364;-1.224;2023-04-04T06:12:40;100568.38;;;3.16;69.91
70544;BME280;58097;48.364;-1.224;2023-04-04T06:15:06;100572.84;;;3.17;70.18
70544;BME280;58097;48.364;-1.224;2023-04-04T06:17:31;100575.09;;;3.25;70.84
70544;BME280;58097;48.364;-1.224;2023-04-04T06:19:57;100557.59;;;3.41;71.84
70544;BME280;58097;48.364;-1.224;2023-04-04T06:22:22;100563.84;;;3.58;71.56
70544;BME280;58097;48.364;-1.224;2023-04-04T06:24:48;100564.47;;;3.76;71.83
70544;BME280;58097;48.364;-1.224;2023-04-04T06:27:13;100565.25;;;3.78;70.61
70544;BME280;58097;48.364;-1.224;2023-04-04T06:29:38;100566.59;;;3.85;71.19
70544;BME280;58097;48.364;-1.224;2023-04-04T06:32:04;100570.56;;;3.93;71.16
70544;BME280;58097;48.364;-1.224;2023-04-04T06:34:30;100575.41;;;4.02;71.09
70544;BME280;58097;48.364;-1.224;2023-04-04T06:36:55;100578.31;;;4.14;70.99
70544;BME280;58097;48.364;-1.224;2023-04-04T06:39:21;100579.00;;;4.30;71.16
70544;BME280;58097;48.364;-1.224;2023-04-04T06:41:46;100580.13;;;4.40;70.97
70544;BME280;58097;48.364;-1.224;2023-04-04T06:44:12;100589.25;;;4.53;71.19
70544;BME280;58097;48.364;-1.224;2023-04-04T06:46:38;100581.63;;;4.71;71.03
70544;BME280;58097;48.364;-1.224;2023-04-04T06:49:04;100580.19;;;4.91;71.06
70544;BME280;58097;48.364;-1.224;2023-04-04T06:51:30;100589.63;;;5.12;70.77
70544;BME280;58097;48.364;-1.224;2023-04-04T06:53:55;100579.75;;;5.35;70.94
70544;BME280;58097;48.364;-1.224;2023-04-04T06:56:21;100580.34;;;5.64;70.91
70544;BME280;58097;48.364;-1.224;2023-04-04T06:58:47;100570.84;;;5.94;70.60
70544;BME280;58097;48.364;-1.224;2023-04-04T07:01:13;100578.84;;;6.20;70.26
70544;BME280;58097;48.364;-1.224;2023-04-04T07:03:38;100577.09;;;6.43;69.77
70544;BME280;58097;48.364;-1.224;2023-04-04T07:06:04;100585.50;;;6.64;70.08
70544;BME280;58097;48.364;-1.224;2023-04-04T07:08:29;100578.97;;;6.89;69.44
70544;BME280;58097;48.364;-1.224;2023-04-04T07:10:55;100578.88;;;7.13;69.73
70544;BME280;58097;48.364;-1.224;2023-04-04T07:13:21;100580.41;;;7.39;69.24
70544;BME280;58097;48.364;-1.224;2023-04-04T07:15:47;100573.41;;;7.58;68.72
70544;BME280;58097;48.364;-1.224;2023-04-04T07:18:15;100582.88;;;7.87;68.98
70544;BME280;58097;48.364;-1.224;2023-04-04T07:20:40;100585.47;;;8.11;68.38
70544;BME280;58097;48.364;-1.224;2023-04-04T07:23:07;100589.91;;;8.23;68.13
70544;BME280;58097;48.364;-1.224;2023-04-04T07:25:33;100587.91;;;8.36;68.04
70544;BME280;58097;48.364;-1.224;2023-04-04T07:27:58;100583.09;;;8.50;67.02
70544;BME280;58097;48.364;-1.224;2023-04-04T07:30:23;100584.38;;;8.66;66.21
70544;BME280;58097;48.364;-1.224;2023-04-04T07:32:56;100587.03;;;8.89;66.39
70544;BME280;58097;48.364;-1.224;2023-04-04T07:35:22;100580.88;;;8.96;63.32
70544;BME280;58097;48.364;-1.224;2023-04-04T07:37:48;100581.50;;;8.89;61.51
70544;BME280;58097;48.364;-1.224;2023-04-04T07:40:13;100579.69;;;8.57;59.10
70544;BME280;58097;48.364;-1.224;2023-04-04T07:42:43;100573.56;;;8.54;57.55
70544;BME280;58097;48.364;-1.224;2023-04-04T07:45:10;100570.47;;;8.47;57.61
70544;BME280;58097;48.364;-1.224;2023-04-04T07:47:35;100570.59;;;8.46;57.28
70544;BME280;58097;48.364;-1.224;2023-04-04T07:50:02;100575.66;;;8.61;59.53
70544;BME280;58097;48.364;-1.224;2023-04-04T07:52:28;100579.06;;;8.54;54.87
70544;BME280;58097;48.364;-1.224;2023-04-04T07:54:53;100576.22;;;8.76;58.52
70544;BME280;58097;48.364;-1.224;2023-04-04T07:57:19;100576.59;;;8.92;57.11
70544;BME280;58097;48.364;-1.224;2023-04-04T07:59:44;100574.25;;;9.09;58.47
70544;BME280;58097;48.364;-1.224;2023-04-04T08:02:10;100574.91;;;9.22;55.64
70544;BME280;58097;48.364;-1.224;2023-04-04T08:04:35;100577.00;;;9.29;57.67
70544;BME280;58097;48.364;-1.224;2023-04-04T08:07:01;100584.63;;;9.47;57.51
70544;BME280;58097;48.364;-1.224;2023-04-04T08:09:26;100585.31;;;9.70;58.08
70544;BME280;58097;48.364;-1.224;2023-04-04T08:11:58;100580.97;;;9.77;57.21
70544;BME280;58097;48.364;-1.224;2023-04-04T08:14:23;100589.69;;;9.72;52.69
70544;BME280;58097;48.364;-1.224;2023-04-04T08:16:48;100592.66;;;9.90;55.58
70544;BME280;58097;48.364;-1.224;2023-04-04T08:19:14;100589.50;;;10.04;55.36
70544;BME280;58097;48.364;-1.224;2023-04-04T08:21:40;100589.19;;;9.98;54.02
70544;BME280;58097;48.364;-1.224;2023-04-04T08:24:07;100594.72;;;10.07;56.18
70544;BME280;58097;48.364;-1.224;2023-04-04T08:26:32;100593.41;;;10.11;54.49
70544;BME280;58097;48.364;-1.224;2023-04-04T08:28:57;100593.59;;;10.19;53.49
70544;BME280;58097;48.364;-1.224;2023-04-04T08:31:23;100594.44;;;10.10;52.24
70544;BME280;58097;48.364;-1.224;2023-04-04T08:33:48;100598.47;;;9.87;49.19
70544;BME280;58097;48.364;-1.224;2023-04-04T08:36:14;100604.28;;;9.93;51.08
70544;BME280;58097;48.364;-1.224;2023-04-04T08:38:40;100599.06;;;10.00;50.64
70544;BME280;58097;48.364;-1.224;2023-04-04T08:41:06;100597.19;;;10.10;52.87
70544;BME280;58097;48.364;-1.224;2023-04-04T08:43:33;100598.22;;;10.09;50.53
70544;BME280;58097;48.364;-1.224;2023-04-04T08:45:59;100606.88;;;9.85;49.12
70544;BME280;58097;48.364;-1.224;2023-04-04T08:48:26;100595.22;;;9.82;49.61
70544;BME280;58097;48.364;-1.224;2023-04-04T08:50:55;100595.97;;;9.84;50.24
70544;BME280;58097;48.364;-1.224;2023-04-04T08:53:23;100606.06;;;9.64;49.68
70544;BME280;58097;48.364;-1.224;2023-04-04T08:55:52;100608.38;;;9.59;49.49
70544;BME280;58097;48.364;-1.224;2023-04-04T08:58:18;100602.38;;;9.84;51.84
70544;BME280;58097;48.364;-1.224;2023-04-04T09:00:43;100603.59;;;10.11;52.65
70544;BME280;58097;48.364;-1.224;2023-04-04T09:03:25;100606.34;;;10.41;51.35
70544;BME280;58097;48.364;-1.224;2023-04-04T09:05:54;100610.25;;;10.58;51.42
70544;BME280;58097;48.364;-1.224;2023-04-04T09:08:20;100612.31;;;10.56;52.96
70544;BME280;58097;48.364;-1.224;2023-04-04T09:10:48;100605.19;;;10.82;51.27
70544;BME280;58097;48.364;-1.224;2023-04-04T09:13:14;100616.38;;;10.81;49.47
70544;BME280;58097;48.364;-1.224;2023-04-04T09:15:42;100614.19;;;10.55;49.81
70544;BME280;58097;48.364;-1.224;2023-04-04T09:18:09;100613.91;;;10.78;51.73
70544;BME280;58097;48.364;-1.224;2023-04-04T09:20:36;100609.53;;;10.95;50.63
70544;BME280;58097;48.364;-1.224;2023-04-04T09:23:12;100597.16;;;11.08;50.55
70544;BME280;58097;48.364;-1.224;2023-04-04T09:25:48;100598.31;;;11.15;49.42
70544;BME280;58097;48.364;-1.224;2023-04-04T09:28:15;100598.38;;;11.43;52.24
70544;BME280;58097;48.364;-1.224;2023-04-04T09:30:41;100589.09;;;11.34;48.76
70544;BME280;58097;48.364;-1.224;2023-04-04T09:33:10;100602.63;;;11.37;47.44
70544;BME280;58097;48.364;-1.224;2023-04-04T09:35:37;100604.41;;;11.29;48.22
70544;BME280;58097;48.364;-1.224;2023-04-04T09:38:07;100602.53;;;11.10;47.05
70544;BME280;58097;48.364;-1.224;2023-04-04T09:40:36;100602.66;;;11.18;48.21
70544;BME280;58097;48.364;-1.224;2023-04-04T09:43:03;100602.66;;;11.28;47.94
70544;BME280;58097;48.364;-1.224;2023-04-04T09:45:32;100598.00;;;11.28;48.29
70544;BME280;58097;48.364;-1.224;2023-04-04T09:47:58;100595.63;;;11.43;48.23
70544;BME280;58097;48.364;-1.224;2023-04-04T09:50:24;100593.25;;;11.58;49.21
70544;BME280;58097;48.364;-1.224;2023-04-04T09:52:55;100596.59;;;11.52;48.47
70544;BME280;58097;48.364;-1.224;2023-04-04T09:55:30;100594.56;;;11.54;48.75
70544;BME280;58097;48.364;-1.224;2023-04-04T09:57:56;100594.47;;;11.73;48.14
70544;BME280;58097;48.364;-1.224;2023-04-04T10:00:22;100612.91;;;11.64;47.46
70544;BME280;58097;48.364;-1.224;2023-04-04T10:02:47;100607.81;;;11.60;46.55
70544;BME280;58097;48.364;-1.224;2023-04-04T10:05:14;100596.22;;;11.74;46.83
70544;BME280;58097;48.364;-1.224;2023-04-04T10:07:40;100587.91;;;11.84;46.85
70544;BME280;58097;48.364;-1.224;2023-04-04T10:10:08;100594.19;;;11.76;48.07
70544;BME280;58097;48.364;-1.224;2023-04-04T10:12:37;100594.66;;;11.71;46.71
70544;BME280;58097;48.364;-1.224;2023-04-04T10:15:03;100588.78;;;11.84;48.50
70544;BME280;58097;48.364;-1.224;2023-04-04T10:17:39;100593.25;;;11.95;47.32
70544;BME280;58097;48.364;-1.224;2023-04-04T10:20:06;100584.47;;;11.99;48.24
70544;BME280;58097;48.364;-1.224;2023-04-04T10:22:36;100589.50;;;12.14;47.57
70544;BME280;58097;48.364;-1.224;2023-04-04T10:25:03;100587.03;;;12.10;46.05
70544;BME280;58097;48.364;-1.224;2023-04-04T10:27:30;100583.06;;;11.95;46.09
70544;BME280;58097;48.364;-1.224;2023-04-04T10:29:55;100586.31;;;12.08;48.36
70544;BME280;58097;48.364;-1.224;2023-04-04T10:32:44;100593.59;;;12.09;46.47
70544;BME280;58097;48.364;-1.224;2023-04-04T10:35:14;100590.00;;;12.27;48.68
70544;BME280;58097;48.364;-1.224;2023-04-04T10:37:51;100588.44;;;12.42;47.24
70544;BME280;58097;48.364;-1.224;2023-04-04T10:40:20;100594.41;;;12.65;47.64
70544;BME280;58097;48.364;-1.224;2023-04-04T10:42:46;100594.16;;;12.58;46.55
70544;BME280;58097;48.364;-1.224;2023-04-04T10:45:14;100583.16;;;12.66;48.03
70544;BME280;58097;48.364;-1.224;2023-04-04T10:47:40;100585.44;;;12.89;48.75
70544;BME280;58097;48.364;-1.224;2023-04-04T10:50:06;100581.94;;;12.69;45.45
70544;BME280;58097;48.364;-1.224;2023-04-04T10:52:35;100586.41;;;12.80;46.75
70544;BME280;58097;48.364;-1.224;2023-04-04T10:55:05;100573.94;;;12.66;47.11
70544;BME280;58097;48.364;-1.224;2023-04-04T10:57:40;100574.97;;;12.65;45.42
70544;BME280;58097;48.364;-1.224;2023-04-04T11:00:08;100585.53;;;12.79;46.69
70544;BME280;58097;48.364;-1.224;2023-04-04T11:02:55;100580.16;;;12.78;48.11
70544;BME280;58097;48.364;-1.224;2023-04-04T11:05:36;100585.13;;;12.92;48.52
70544;BME280;58097;48.364;-1.224;2023-04-04T11:08:07;100581.78;;;13.06;47.74
70544;BME280;58097;48.364;-1.224;2023-04-04T11:10:40;100574.56;;;12.95;48.34
70544;BME280;58097;48.364;-1.224;2023-04-04T11:13:11;100574.16;;;13.08;47.11
70544;BME280;58097;48.364;-1.224;2023-04-04T11:18:10;100565.09;;;13.24;47.95
70544;BME280;58097;48.364;-1.224;2023-04-04T11:20:40;100562.50;;;13.48;48.20
70544;BME280;58097;48.364;-1.224;2023-04-04T11:23:19;100563.13;;;13.34;45.79
70544;BME280;58097;48.364;-1.224;2023-04-04T11:34:07;100552.19;;;13.67;45.14
70544;BME280;58097;48.364;-1.224;2023-04-04T11:39:08;100541.78;;;13.69;46.33
70544;BME280;58097;48.364;-1.224;2023-04-04T11:41:51;100536.13;;;13.86;47.14
70544;BME280;58097;48.364;-1.224;2023-04-04T11:44:17;100543.50;;;14.04;47.75
70544;BME280;58097;48.364;-1.224;2023-04-04T11:46:44;100538.72;;;14.22;46.65
70544;BME280;58097;48.364;-1.224;2023-04-04T11:49:12;100537.22;;;13.93;44.11
70544;BME280;58097;48.364;-1.224;2023-04-04T11:51:38;100527.88;;;14.11;46.93
70544;BME280;58097;48.364;-1.224;2023-04-04T11:54:05;100531.75;;;14.26;47.49
70544;BME280;58097;48.364;-1.224;2023-04-04T11:56:41;100528.31;;;14.40;47.65
70544;BME280;58097;48.364;-1.224;2023-04-04T11:59:06;100525.59;;;14.48;46.56
70544;BME280;58097;48.364;-1.224;2023-04-04T12:01:32;100528.22;;;14.08;43.38
70544;BME280;58097;48.364;-1.224;2023-04-04T12:03:58;100531.16;;;13.98;44.49
70544;BME280;58097;48.364;-1.224;2023-04-04T12:06:28;100514.06;;;13.85;44.46
70544;BME280;58097;48.364;-1.224;2023-04-04T12:08:53;100521.25;;;13.95;45.47
70544;BME280;58097;48.364;-1.224;2023-04-04T12:11:19;100519.41;;;14.20;46.84
70544;BME280;58097;48.364;-1.224;2023-04-04T12:13:45;100520.31;;;14.29;46.35
70544;BME280;58097;48.364;-1.224;2023-04-04T12:16:17;100509.53;;;14.34;45.47
70544;BME280;58097;48.364;-1.224;2023-04-04T12:18:43;100511.59;;;14.24;45.10
70544;BME280;58097;48.364;-1.224;2023-04-04T12:21:10;100514.56;;;14.22;44.43
70544;BME280;58097;48.364;-1.224;2023-04-04T12:23:35;100514.38;;;14.24;45.23
70544;BME280;58097;48.364;-1.224;2023-04-04T12:26:01;100516.47;;;14.22;45.29
70544;BME280;58097;48.364;-1.224;2023-04-04T12:28:30;100510.22;;;14.20;42.99
70544;BME280;58097;48.364;-1.224;2023-04-04T12:30:59;100497.53;;;14.42;44.69
70544;BME280;58097;48.364;-1.224;2023-04-04T12:33:30;100502.56;;;14.22;45.18
70544;BME280;58097;48.364;-1.224;2023-04-04T12:35:58;100506.13;;;14.48;45.54
70544;BME280;58097;48.364;-1.224;2023-04-04T12:38:24;100498.28;;;14.44;43.83
70544;BME280;58097;48.364;-1.224;2023-04-04T12:40:51;100489.09;;;14.76;46.97
70544;BME280;58097;48.364;-1.224;2023-04-04T12:43:17;100489.44;;;14.89;45.32
70544;BME280;58097;48.364;-1.224;2023-04-04T12:45:43;100489.41;;;14.97;46.29
70544;BME280;58097;48.364;-1.224;2023-04-04T12:48:13;100491.00;;;14.92;43.40
70544;BME280;58097;48.364;-1.224;2023-04-04T12:50:59;100495.16;;;15.04;45.68
70544;BME280;58097;48.364;-1.224;2023-04-04T12:53:28;100485.22;;;15.17;45.81
70544;BME280;58097;48.364;-1.224;2023-04-04T12:56:00;100473.50;;;15.38;44.41
70544;BME280;58097;48.364;-1.224;2023-04-04T12:58:27;100469.84;;;15.30;42.99
70544;BME280;58097;48.364;-1.224;2023-04-04T13:00:54;100473.53;;;15.22;41.60
70544;BME280;58097;48.364;-1.224;2023-04-04T13:03:21;100476.38;;;15.06;41.30